createdAt,value
2022-11-09T00:00:07.988Z,87.77
2022-11-09T00:01:11.039Z,87.71
2022-11-09T00:02:14.713Z,87.81
2022-11-09T00:03:17.838Z,88.11
2022-11-09T00:04:24.476Z,88.24
2022-11-09T00:05:29.795Z,87.96
2022-11-09T00:06:34.457Z,88.05
2022-11-09T00:07:38.476Z,88.01
2022-11-09T00:08:43.575Z,88.18
2022-11-09T00:09:46.486Z,88.07
2022-11-09T00:10:50.355Z,88.14
2022-11-09T00:11:54.685Z,88.14
2022-11-09T00:13:02.241Z,88.20
2022-11-09T00:14:05.885Z,88.01
2022-11-09T00:15:11.827Z,88.05
2022-11-09T00:16:20.736Z,88.13
2022-11-09T00:17:24.406Z,88.40
2022-11-09T00:18:27.054Z,88.44
2022-11-09T00:19:31.213Z,88.53
2022-11-09T00:20:33.943Z,88.39
2022-11-09T00:21:37.634Z,88.54
2022-11-09T00:22:40.532Z,88.72
2022-11-09T00:23:45.333Z,88.89
2022-11-09T00:24:48.035Z,88.99
2022-11-09T00:25:52.132Z,89.09
2022-11-09T00:26:56.195Z,89.01
2022-11-09T00:28:01.504Z,89.44
2022-11-09T00:29:05.302Z,89.06
2022-11-09T00:30:12.514Z,88.94
2022-11-09T00:31:17.815Z,89.08
2022-11-09T00:32:26.616Z,88.89
2022-11-09T00:33:31.734Z,88.73
2022-11-09T00:34:35.172Z,88.68
2022-11-09T00:35:40.236Z,88.81
2022-11-09T00:36:50.398Z,88.94
2022-11-09T00:37:54.666Z,88.57
2022-11-09T00:39:04.116Z,88.94
2022-11-09T00:40:11.088Z,89.04
2022-11-09T00:41:14.823Z,89.09
2022-11-09T00:42:19.533Z,89.30
2022-11-09T00:43:24.775Z,89.12
2022-11-09T00:44:27.392Z,89.08
2022-11-09T00:45:31.972Z,88.95
2022-11-09T00:46:35.763Z,88.89
2022-11-09T00:47:39.337Z,88.64
2022-11-09T00:48:56.751Z,88.73
2022-11-09T00:50:02.963Z,88.67
2022-11-09T00:51:07.721Z,88.77
2022-11-09T00:52:10.604Z,88.77
2022-11-09T00:53:21.619Z,88.54
2022-11-09T00:54:24.485Z,88.36
2022-11-09T00:55:31.614Z,88.52
2022-11-09T00:56:35.845Z,88.61
2022-11-09T00:57:39.524Z,88.81
2022-11-09T00:58:47.096Z,88.81
2022-11-09T00:59:52.314Z,88.72
2022-11-09T01:00:59.713Z,88.76
2022-11-09T01:02:03.597Z,88.53
2022-11-09T01:03:06.466Z,88.64
2022-11-09T01:04:10.193Z,88.46
2022-11-09T01:05:13.168Z,88.61
2022-11-09T01:06:18.346Z,88.49
2022-11-09T01:07:21.171Z,88.61
2022-11-09T01:08:34.257Z,88.79
2022-11-09T01:09:36.914Z,88.46
2022-11-09T01:10:43.683Z,88.52
2022-11-09T01:11:50.235Z,88.42
2022-11-09T01:12:53.028Z,88.70
2022-11-09T01:14:01.152Z,88.77
2022-11-09T01:15:06.763Z,88.68
2022-11-09T01:16:16.366Z,88.61
2022-11-09T01:17:21.924Z,88.74
2022-11-09T01:18:29.033Z,88.93
2022-11-09T01:19:32.805Z,88.93
2022-11-09T01:20:39.385Z,88.63
2022-11-09T01:21:43.055Z,88.47
2022-11-09T01:22:45.797Z,88.34
2022-11-09T01:23:50.674Z,88.27
2022-11-09T01:24:53.534Z,88.26
2022-11-09T01:26:03.312Z,88.18
2022-11-09T01:27:07.105Z,88.14
2022-11-09T01:28:10.634Z,88.04
2022-11-09T01:29:15.844Z,88.59
2022-11-09T01:30:19.308Z,88.78
2022-11-09T01:31:24.398Z,88.61
2022-11-09T01:32:27.475Z,88.80
2022-11-09T01:33:31.246Z,88.96
2022-11-09T01:34:34.212Z,89.11
2022-11-09T01:35:42.974Z,89.30
2022-11-09T01:36:45.665Z,89.48
2022-11-09T01:37:50.367Z,89.37
2022-11-09T01:38:54.084Z,89.45
2022-11-09T01:40:00.277Z,89.43
2022-11-09T01:41:03.485Z,89.76
2022-11-09T01:42:07.685Z,90.01
2022-11-09T01:43:17.170Z,90.11
2022-11-09T01:44:24.283Z,90.15
2022-11-09T01:45:28.843Z,90.32
2022-11-09T01:46:36.785Z,90.32
2022-11-09T01:47:42.123Z,90.08
2022-11-09T01:48:47.847Z,90.08
2022-11-09T01:49:54.545Z,89.80
2022-11-09T01:51:03.593Z,89.83
2022-11-09T01:52:14.663Z,89.79
2022-11-09T01:53:20.599Z,90.15
2022-11-09T01:54:30.837Z,90.02
2022-11-09T01:55:40.795Z,90.09
2022-11-09T01:56:46.535Z,89.84
2022-11-09T01:57:53.506Z,89.47
2022-11-09T01:59:03.075Z,89.17
2022-11-09T02:00:12.793Z,89.24
2022-11-09T02:01:20.153Z,89.18
2022-11-09T02:02:23.436Z,89.63
2022-11-09T02:03:30.039Z,89.73
2022-11-09T02:04:35.456Z,89.54
2022-11-09T02:11:49.743Z,89.79
2022-11-09T02:12:55.092Z,89.92
2022-11-09T02:14:02.604Z,89.83
2022-11-09T02:15:12.184Z,89.90
2022-11-09T02:16:16.881Z,89.64
2022-11-09T02:17:22.173Z,89.77
2022-11-09T02:18:27.006Z,89.84
2022-11-09T02:19:30.643Z,89.82
2022-11-09T02:20:46.664Z,89.62
2022-11-09T02:21:51.282Z,89.42
2022-11-09T02:22:55.304Z,89.46
2022-11-09T02:23:59.305Z,89.19
2022-11-09T02:25:05.656Z,89.11
2022-11-09T02:26:12.733Z,89.14
2022-11-09T02:27:15.446Z,89.19
2022-11-09T02:28:20.787Z,89.21
2022-11-09T02:29:27.171Z,89.10
2022-11-09T02:30:33.488Z,89.13
2022-11-09T02:31:40.322Z,88.91
2022-11-09T02:32:44.162Z,88.93
2022-11-09T02:33:55.647Z,88.32
2022-11-09T02:35:04.603Z,88.46
2022-11-09T02:36:08.884Z,88.61
2022-11-09T02:37:13.805Z,88.32
2022-11-09T02:38:17.082Z,88.56
2022-11-09T02:39:23.313Z,88.54
2022-11-09T02:40:34.093Z,88.38
2022-11-09T02:41:40.702Z,88.67
2022-11-09T02:42:44.594Z,88.62
2022-11-09T02:43:51.002Z,88.84
2022-11-09T02:45:00.121Z,88.75
2022-11-09T02:46:03.014Z,88.56
2022-11-09T02:47:11.633Z,88.33
2022-11-09T02:48:14.604Z,88.46
2022-11-09T02:49:19.642Z,88.90
2022-11-09T02:50:22.350Z,89.41
2022-11-09T02:51:27.802Z,89.27
2022-11-09T02:52:30.543Z,89.31
2022-11-09T02:53:37.571Z,89.39
2022-11-09T02:54:40.253Z,89.28
2022-11-09T02:55:45.487Z,89.11
2022-11-09T02:56:49.262Z,89.56
2022-11-09T02:57:54.764Z,89.47
2022-11-09T02:58:57.971Z,89.52
2022-11-09T03:00:07.376Z,89.47
2022-11-09T03:01:10.646Z,89.54
2022-11-09T03:02:14.513Z,89.58
2022-11-09T03:03:21.086Z,89.43
2022-11-09T03:04:25.594Z,89.37
2022-11-09T03:05:29.624Z,89.22
2022-11-09T03:06:36.409Z,89.34
2022-11-09T03:07:46.757Z,89.25
2022-11-09T03:08:51.092Z,88.98
2022-11-09T03:09:54.666Z,88.82
2022-11-09T03:11:01.269Z,88.81
2022-11-09T03:12:24.791Z,88.85
2022-11-09T03:13:31.604Z,88.95
2022-11-09T03:14:34.463Z,88.98
2022-11-09T03:15:41.103Z,89.04
2022-11-09T03:16:50.020Z,89.10
2022-11-09T03:17:54.344Z,88.88
2022-11-09T03:18:58.357Z,89.47
2022-11-09T03:20:02.693Z,89.73
2022-11-09T03:21:08.384Z,89.59
2022-11-09T03:22:14.532Z,89.60
2022-11-09T03:23:22.211Z,89.41
2022-11-09T03:24:25.068Z,89.40
2022-11-09T03:25:32.672Z,89.17
2022-11-09T03:26:36.202Z,89.12
2022-11-09T03:27:40.313Z,89.15
2022-11-09T03:28:44.065Z,89.15
2022-11-09T03:29:48.372Z,89.42
2022-11-09T03:30:51.283Z,89.69
2022-11-09T03:31:55.125Z,89.82
2022-11-09T03:33:02.288Z,90.13
2022-11-09T03:34:05.271Z,90.68
2022-11-09T03:35:12.201Z,90.79
2022-11-09T03:36:15.564Z,90.66
2022-11-09T03:37:20.911Z,89.72
2022-11-09T03:38:24.913Z,89.37
2022-11-09T03:39:32.354Z,89.65
2022-11-09T03:40:35.431Z,90.11
2022-11-09T03:41:39.546Z,89.92
2022-11-09T03:42:47.957Z,89.55
2022-11-09T03:43:51.923Z,89.78
2022-11-09T03:44:54.639Z,89.76
2022-11-09T03:45:58.404Z,89.79
2022-11-09T03:47:03.746Z,89.76
2022-11-09T03:48:09.794Z,89.61
2022-11-09T03:49:15.916Z,89.93
2022-11-09T03:50:19.953Z,90.05
2022-11-09T03:51:22.642Z,90.01
2022-11-09T03:52:27.860Z,89.85
2022-11-09T03:53:30.494Z,90.10
2022-11-09T03:54:37.045Z,90.16
2022-11-09T03:55:41.420Z,90.18
2022-11-09T03:56:45.317Z,90.21
2022-11-09T03:57:48.148Z,90.22
2022-11-09T03:58:52.054Z,90.25
2022-11-09T03:59:57.263Z,90.41
2022-11-09T04:01:01.123Z,90.30
2022-11-09T04:02:04.076Z,90.50
2022-11-09T04:03:07.865Z,90.18
2022-11-09T04:04:10.689Z,90.10
2022-11-09T04:05:17.366Z,89.79
2022-11-09T04:06:20.153Z,89.89
2022-11-09T04:07:25.696Z,90.17
2022-11-09T04:08:30.903Z,90.83
2022-11-09T04:09:36.761Z,91.18
2022-11-09T04:10:39.453Z,91.37
2022-11-09T04:11:46.324Z,91.58
2022-11-09T04:12:51.173Z,91.60
2022-11-09T04:13:54.976Z,91.57
2022-11-09T04:14:57.766Z,91.59
2022-11-09T04:16:02.342Z,91.50
2022-11-09T04:17:07.337Z,91.47
2022-11-09T04:18:16.002Z,91.19
2022-11-09T04:19:19.932Z,91.08
2022-11-09T04:20:24.005Z,90.70
2022-11-09T04:21:27.766Z,90.30
2022-11-09T04:22:30.467Z,90.46
2022-11-09T04:23:36.386Z,90.53
2022-11-09T04:24:39.995Z,90.55
2022-11-09T04:25:44.024Z,90.53
2022-11-09T04:26:54.052Z,90.77
2022-11-09T04:27:58.157Z,90.82
2022-11-09T04:29:01.863Z,90.80
2022-11-09T04:30:05.433Z,90.89
2022-11-09T04:31:09.232Z,91.03
2022-11-09T04:32:11.935Z,90.98
2022-11-09T04:33:15.775Z,90.75
2022-11-09T04:34:18.815Z,91.07
2022-11-09T04:35:22.815Z,91.29
2022-11-09T04:36:25.594Z,91.26
2022-11-09T04:37:29.272Z,91.03
2022-11-09T04:38:31.934Z,90.80
2022-11-09T04:39:37.513Z,90.74
2022-11-09T04:40:43.736Z,90.69
2022-11-09T04:41:50.302Z,90.70
2022-11-09T04:42:53.054Z,90.58
2022-11-09T04:43:59.193Z,90.60
2022-11-09T04:45:01.920Z,90.43
2022-11-09T04:46:06.066Z,90.32
2022-11-09T04:47:08.764Z,90.18
2022-11-09T04:48:15.740Z,89.79
2022-11-09T04:49:18.475Z,89.57
2022-11-09T04:50:22.202Z,89.74
2022-11-09T04:51:29.587Z,89.71
2022-11-09T04:52:32.401Z,89.73
2022-11-09T04:53:36.985Z,89.81
2022-11-09T04:54:41.085Z,89.95
2022-11-09T04:55:45.686Z,89.93
2022-11-09T04:56:48.846Z,90.03
2022-11-09T04:57:54.404Z,89.75
2022-11-09T04:58:57.147Z,89.65
2022-11-09T05:00:00.915Z,89.37
2022-11-09T05:01:04.593Z,89.57
2022-11-09T05:02:08.332Z,89.45
2022-11-09T05:03:11.054Z,89.64
2022-11-09T05:04:15.115Z,89.50
2022-11-09T05:05:17.924Z,89.54
2022-11-09T05:06:35.461Z,89.25
2022-11-09T05:07:38.210Z,89.13
2022-11-09T05:08:42.206Z,89.01
2022-11-09T05:09:46.392Z,89.35
2022-11-09T05:10:53.140Z,89.54
2022-11-09T05:11:55.814Z,89.56
2022-11-09T05:13:02.110Z,89.77
2022-11-09T05:14:05.699Z,89.84
2022-11-09T05:15:10.145Z,89.71
2022-11-09T05:16:12.969Z,89.75
2022-11-09T05:17:16.802Z,89.72
2022-11-09T05:18:23.290Z,89.76
2022-11-09T05:19:25.972Z,89.85
2022-11-09T05:20:31.726Z,89.64
2022-11-09T05:21:34.534Z,89.70
2022-11-09T05:23:01.727Z,89.64
2022-11-09T05:24:06.023Z,89.64
2022-11-09T05:25:13.494Z,89.97
2022-11-09T05:26:19.731Z,90.19
2022-11-09T05:27:25.065Z,90.01
2022-11-09T05:28:27.744Z,90.27
2022-11-09T05:29:31.432Z,90.27
2022-11-09T05:30:34.102Z,90.32
2022-11-09T05:31:40.313Z,90.57
2022-11-09T05:32:43.041Z,90.76
2022-11-09T05:33:50.452Z,90.79
2022-11-09T05:34:53.146Z,90.81
2022-11-09T05:35:57.141Z,90.97
2022-11-09T05:37:03.452Z,91.02
2022-11-09T05:38:08.376Z,91.09
2022-11-09T05:39:12.433Z,90.90
2022-11-09T05:40:22.743Z,90.77
2022-11-09T05:41:26.865Z,90.97
2022-11-09T05:42:31.487Z,90.90
2022-11-09T05:43:35.296Z,90.76
2022-11-09T05:44:37.991Z,90.67
2022-11-09T05:45:43.460Z,90.76
2022-11-09T05:46:48.512Z,90.61
2022-11-09T05:47:52.233Z,90.55
2022-11-09T05:48:56.944Z,90.75
2022-11-09T05:49:59.665Z,90.82
2022-11-09T05:51:03.786Z,90.99
2022-11-09T05:52:06.632Z,90.80
2022-11-09T05:53:13.491Z,90.80
2022-11-09T05:54:19.254Z,90.73
2022-11-09T05:55:23.343Z,90.80
2022-11-09T05:56:27.163Z,90.84
2022-11-09T05:57:30.105Z,91.10
2022-11-09T05:58:36.576Z,91.01
2022-11-09T05:59:39.273Z,91.24
2022-11-09T06:00:43.046Z,91.11
2022-11-09T06:01:45.761Z,91.26
2022-11-09T06:02:49.485Z,91.45
2022-11-09T06:03:56.960Z,91.74
2022-11-09T06:05:00.723Z,92.51
2022-11-09T06:06:08.644Z,92.57
2022-11-09T06:07:13.359Z,92.73
2022-11-09T06:08:17.378Z,92.79
2022-11-09T06:09:20.065Z,92.38
2022-11-09T06:10:25.258Z,92.74
2022-11-09T06:11:29.943Z,92.61
2022-11-09T06:12:32.696Z,92.75
2022-11-09T06:13:39.144Z,92.95
2022-11-09T06:14:44.604Z,93.16
2022-11-09T06:15:56.235Z,93.45
2022-11-09T06:17:01.836Z,93.35
2022-11-09T06:18:05.824Z,93.53
2022-11-09T06:19:11.527Z,93.85
2022-11-09T06:20:16.635Z,93.90
2022-11-09T06:21:20.392Z,93.71
2022-11-09T06:22:23.244Z,93.95
2022-11-09T06:23:27.856Z,94.19
2022-11-09T06:24:30.523Z,94.10
2022-11-09T06:25:35.703Z,93.92
2022-11-09T06:26:38.506Z,93.71
2022-11-09T06:27:42.222Z,94.08
2022-11-09T06:28:46.359Z,93.76
2022-11-09T06:29:49.236Z,93.63
2022-11-09T06:30:53.228Z,93.11
2022-11-09T06:31:57.235Z,93.59
2022-11-09T06:33:02.433Z,94.15
2022-11-09T06:34:06.385Z,93.63
2022-11-09T06:35:09.715Z,93.67
2022-11-09T06:36:13.984Z,93.86
2022-11-09T06:37:18.005Z,94.12
2022-11-09T06:38:21.755Z,94.14
2022-11-09T06:39:24.474Z,94.55
2022-11-09T06:40:28.764Z,94.77
2022-11-09T06:41:33.426Z,94.79
2022-11-09T06:42:37.212Z,94.67
2022-11-09T06:43:40.996Z,94.53
2022-11-09T06:44:43.782Z,94.55
2022-11-09T06:45:47.607Z,94.34
2022-11-09T06:46:50.337Z,94.40
2022-11-09T06:47:56.991Z,94.96
2022-11-09T06:49:00.957Z,94.81
2022-11-09T06:50:03.841Z,95.28
2022-11-09T06:51:08.675Z,94.83
2022-11-09T06:52:12.445Z,94.88
2022-11-09T06:53:18.229Z,94.87
2022-11-09T06:54:21.157Z,95.80
2022-11-09T06:55:24.965Z,96.51
2022-11-09T06:56:27.967Z,96.94
2022-11-09T06:57:33.333Z,97.44
2022-11-09T06:58:37.774Z,97.22
2022-11-09T06:59:40.504Z,97.53
2022-11-09T07:00:45.271Z,97.53
2022-11-09T07:01:49.211Z,97.85
2022-11-09T07:02:53.612Z,98.37
2022-11-09T07:03:57.488Z,98.50
2022-11-09T07:05:00.322Z,98.46
2022-11-09T07:06:07.182Z,98.77
2022-11-09T07:07:10.083Z,98.56
2022-11-09T07:08:14.779Z,98.57
2022-11-09T07:09:18.514Z,98.13
2022-11-09T07:10:21.203Z,98.06
2022-11-09T07:11:25.037Z,98.11
2022-11-09T07:12:27.821Z,98.11
2022-11-09T07:13:33.200Z,98.04
2022-11-09T07:14:37.043Z,97.93
2022-11-09T07:15:40.144Z,97.59
2022-11-09T07:16:44.003Z,97.38
2022-11-09T07:17:47.894Z,97.24
2022-11-09T07:18:50.590Z,97.28
2022-11-09T07:19:54.351Z,97.07
2022-11-09T07:20:56.993Z,97.36
2022-11-09T07:22:01.005Z,97.49
2022-11-09T07:23:03.974Z,97.67
2022-11-09T07:24:08.503Z,98.30
2022-11-09T07:25:12.242Z,99.03
2022-11-09T07:26:16.133Z,98.77
2022-11-09T07:27:21.389Z,99.01
2022-11-09T07:28:29.325Z,98.86
2022-11-09T07:29:33.560Z,98.87
2022-11-09T07:30:38.097Z,98.59
2022-11-09T07:31:42.092Z,98.56
2022-11-09T07:34:08.943Z,98.52
2022-11-09T07:35:11.873Z,98.72
2022-11-09T07:36:20.854Z,98.26
2022-11-09T07:37:24.316Z,98.35
2022-11-09T07:38:28.676Z,98.56
2022-11-09T07:39:32.002Z,98.10
2022-11-09T07:40:36.243Z,98.51
2022-11-09T07:41:40.032Z,98.75
2022-11-09T07:42:42.771Z,98.50
2022-11-09T07:43:46.716Z,98.98
2022-11-09T07:44:50.965Z,98.95
2022-11-09T07:45:54.803Z,98.64
2022-11-09T07:46:57.651Z,99.00
2022-11-09T07:48:03.022Z,98.59
2022-11-09T07:49:06.929Z,99.11
2022-11-09T07:50:10.527Z,98.59
2022-11-09T07:51:14.403Z,98.59
2022-11-09T07:52:17.263Z,99.21
2022-11-09T07:53:21.757Z,99.33
2022-11-09T07:54:26.116Z,98.86
2022-11-09T07:55:29.461Z,99.50
2022-11-09T07:56:33.244Z,99.75
2022-11-09T07:57:35.907Z,99.46
2022-11-09T07:58:39.601Z,99.58
2022-11-09T07:59:43.455Z,100.00
2022-11-09T08:00:47.530Z,99.70
2022-11-09T08:01:51.359Z,99.50
2022-11-09T08:02:54.479Z,99.51
2022-11-09T08:03:58.353Z,99.87
2022-11-09T08:05:02.252Z,100.00
2022-11-09T08:06:06.314Z,100.00
2022-11-09T08:07:10.110Z,99.76
2022-11-09T08:08:15.845Z,99.89
2022-11-09T08:09:20.182Z,99.84
2022-11-09T08:10:23.141Z,100.00
2022-11-09T08:11:26.934Z,99.70
2022-11-09T08:12:35.766Z,100.00
2022-11-09T08:13:40.842Z,100.00
2022-11-09T08:14:44.572Z,100.00
2022-11-09T08:15:49.828Z,100.00
2022-11-09T08:16:52.763Z,100.00
2022-11-09T08:18:00.793Z,100.00
2022-11-09T08:19:03.920Z,100.00
2022-11-09T08:20:08.621Z,99.96
2022-11-09T08:21:12.684Z,99.90
2022-11-09T08:22:15.606Z,100.00
2022-11-09T08:23:21.171Z,100.00
2022-11-09T08:24:25.797Z,99.96
2022-11-09T08:25:28.762Z,100.00
2022-11-09T08:26:32.469Z,99.94
2022-11-09T08:27:40.291Z,100.00
2022-11-09T08:28:43.983Z,99.97
2022-11-09T08:29:46.855Z,99.69
2022-11-09T08:30:58.812Z,99.62
2022-11-09T08:32:02.553Z,99.11
2022-11-09T08:33:07.211Z,99.05
2022-11-09T08:34:12.700Z,99.08
2022-11-09T08:35:18.222Z,99.19
2022-11-09T08:36:22.284Z,98.87
2022-11-09T08:37:25.073Z,98.74
2022-11-09T08:38:28.997Z,99.31
2022-11-09T08:39:32.785Z,98.82
2022-11-09T08:40:36.608Z,99.01
2022-11-09T08:41:40.353Z,98.08
2022-11-09T08:42:43.263Z,97.96
2022-11-09T08:43:47.165Z,97.81
2022-11-09T08:44:49.816Z,98.16
2022-11-09T08:45:53.940Z,97.69
2022-11-09T08:46:59.120Z,97.63
2022-11-09T08:48:02.410Z,97.44
2022-11-09T08:49:06.738Z,97.91
2022-11-09T08:50:10.912Z,96.73
2022-11-09T08:51:14.759Z,97.15
2022-11-09T08:52:17.708Z,96.80
2022-11-09T08:53:21.509Z,96.03
2022-11-09T08:54:25.461Z,95.34
2022-11-09T08:55:29.375Z,94.34
2022-11-09T08:56:33.352Z,94.37
2022-11-09T08:57:37.143Z,94.84
2022-11-09T08:58:41.125Z,94.67
2022-11-09T08:59:45.181Z,93.20
2022-11-09T09:00:48.932Z,93.29
2022-11-09T09:01:52.793Z,92.82
2022-11-09T09:02:58.343Z,91.46
2022-11-09T09:04:01.423Z,91.34
2022-11-09T09:05:05.951Z,91.53
2022-11-09T09:06:10.084Z,91.72
2022-11-09T09:07:14.436Z,91.73
2022-11-09T09:08:19.218Z,90.87
2022-11-09T09:09:23.230Z,91.06
2022-11-09T09:10:27.129Z,89.33
2022-11-09T09:11:31.031Z,90.63
2022-11-09T09:12:33.940Z,89.94
2022-11-09T09:13:42.898Z,90.45
2022-11-09T09:14:47.370Z,89.99
2022-11-09T09:15:51.452Z,90.31
2022-11-09T09:16:54.221Z,89.66
2022-11-09T09:18:01.054Z,89.37
2022-11-09T09:19:04.852Z,88.95
2022-11-09T09:20:08.962Z,89.52
2022-11-09T09:21:13.723Z,89.18
2022-11-09T09:22:16.585Z,89.77
2022-11-09T09:23:20.382Z,89.34
2022-11-09T09:24:23.350Z,89.38
2022-11-09T09:25:27.400Z,89.25
2022-11-09T09:26:31.143Z,89.14
2022-11-09T09:27:35.351Z,89.18
2022-11-09T09:28:39.486Z,87.98
2022-11-09T09:29:43.423Z,87.48
2022-11-09T09:30:47.292Z,87.30
2022-11-09T09:31:51.184Z,87.40
2022-11-09T09:33:01.464Z,88.19
2022-11-09T09:34:05.360Z,87.92
2022-11-09T09:35:09.874Z,87.26
2022-11-09T09:36:18.113Z,87.30
2022-11-09T09:37:21.945Z,87.17
2022-11-09T09:38:25.870Z,86.83
2022-11-09T09:39:30.110Z,86.28
2022-11-09T09:40:38.427Z,86.97
2022-11-09T09:41:46.125Z,86.29
2022-11-09T09:42:50.223Z,86.10
2022-11-09T09:43:55.970Z,86.31
2022-11-09T09:45:02.571Z,85.88
2022-11-09T09:46:09.342Z,85.97
2022-11-09T09:47:16.360Z,85.23
2022-11-09T09:48:28.260Z,84.67
2022-11-09T09:49:33.887Z,85.01
2022-11-09T09:50:42.067Z,85.02
2022-11-09T09:51:50.843Z,84.64
2022-11-09T09:53:23.343Z,84.03
2022-11-09T09:54:25.532Z,83.80
2022-11-09T09:55:36.200Z,83.90
2022-11-09T09:56:44.351Z,83.56
2022-11-09T09:57:51.183Z,83.83
2022-11-09T09:58:59.482Z,83.92
2022-11-09T10:00:05.401Z,84.44
2022-11-09T10:01:17.092Z,84.37
2022-11-09T10:02:24.553Z,84.62
2022-11-09T10:03:29.852Z,83.89
2022-11-09T10:04:37.144Z,84.31
2022-11-09T10:05:49.652Z,83.77
2022-11-09T10:07:03.477Z,84.27
2022-11-09T10:08:10.981Z,84.28
2022-11-09T10:09:23.860Z,83.78
2022-11-09T10:10:38.944Z,84.38
2022-11-09T10:11:49.491Z,83.64
2022-11-09T10:13:07.456Z,83.77
2022-11-09T10:14:35.930Z,83.53
2022-11-09T10:15:46.394Z,83.67
2022-11-09T10:16:56.992Z,83.53
2022-11-09T10:18:14.443Z,83.64
2022-11-09T10:19:29.871Z,83.23
2022-11-09T10:20:42.522Z,83.07
2022-11-09T10:21:52.231Z,83.14
2022-11-09T10:23:08.682Z,82.87
2022-11-09T10:24:26.344Z,82.01
2022-11-09T10:26:02.522Z,81.66
2022-11-09T10:26:56.971Z,81.75
2022-11-09T10:28:02.801Z,82.10
2022-11-09T10:29:18.684Z,82.35
2022-11-09T10:30:24.673Z,82.05
2022-11-09T10:31:33.010Z,81.71
2022-11-09T10:32:38.032Z,81.39
2022-11-09T10:33:40.715Z,80.96
2022-11-09T10:34:54.873Z,81.18
2022-11-09T10:36:08.206Z,81.34
2022-11-09T10:37:16.390Z,80.72
2022-11-09T10:38:25.490Z,81.12
2022-11-09T10:39:51.081Z,80.30
2022-11-09T10:41:18.494Z,80.54
2022-11-09T10:42:40.743Z,80.07
2022-11-09T10:44:03.662Z,80.69
2022-11-09T10:45:36.642Z,80.38
2022-11-09T10:47:12.064Z,80.59
2022-11-09T10:48:36.572Z,80.01
2022-11-09T10:50:22.840Z,79.46
2022-11-09T10:51:47.011Z,79.31
2022-11-09T10:53:17.103Z,79.66
2022-11-09T10:54:39.783Z,79.58
2022-11-09T10:56:11.494Z,79.27
2022-11-09T10:57:33.952Z,79.60
2022-11-09T10:58:56.563Z,79.48
2022-11-09T11:00:20.757Z,79.23
2022-11-09T11:01:43.267Z,79.14
2022-11-09T11:03:13.053Z,79.23
2022-11-09T11:04:35.335Z,79.10
2022-11-09T11:06:03.033Z,78.93
2022-11-09T11:07:25.457Z,78.52
2022-11-09T11:08:49.781Z,78.60
2022-11-09T11:10:12.500Z,78.72
2022-11-09T11:11:36.959Z,78.20
2022-11-09T11:13:22.194Z,77.77
2022-11-09T11:14:46.302Z,77.33
2022-11-09T11:16:17.397Z,77.79
2022-11-09T11:17:41.389Z,77.24
2022-11-09T11:19:04.271Z,77.55
2022-11-09T11:20:32.020Z,77.52
2022-11-09T11:22:23.033Z,77.11
2022-11-09T11:23:45.942Z,77.25
2022-11-09T11:25:19.989Z,76.93
2022-11-09T11:26:47.842Z,76.95
2022-11-09T11:28:19.050Z,77.28
2022-11-09T11:29:49.072Z,77.32
2022-11-09T11:31:13.440Z,77.21
2022-11-09T11:32:35.985Z,77.08
2022-11-09T11:33:58.893Z,76.70
2022-11-09T11:35:27.400Z,76.04
2022-11-09T11:36:59.023Z,75.84
2022-11-09T11:38:29.304Z,75.59
2022-11-09T11:40:01.453Z,75.22
2022-11-09T11:41:42.809Z,74.58
2022-11-09T11:43:23.352Z,74.38
2022-11-09T11:45:25.522Z,74.94
2022-11-09T11:46:47.904Z,74.67
2022-11-09T11:48:39.570Z,74.05
2022-11-09T11:50:22.777Z,72.61
2022-11-09T11:51:51.663Z,73.72
2022-11-09T11:53:21.567Z,73.72
2022-11-09T11:54:55.572Z,73.52
2022-11-09T11:56:23.133Z,73.28
2022-11-09T11:57:52.289Z,73.35
2022-11-09T11:59:40.712Z,72.81
2022-11-09T12:01:12.621Z,73.17
2022-11-09T12:02:56.127Z,73.05
2022-11-09T12:04:34.135Z,71.76
2022-11-09T12:06:08.344Z,69.73
2022-11-09T12:07:36.352Z,71.02
2022-11-09T12:09:24.659Z,70.33
2022-11-09T12:10:55.854Z,70.52
2022-11-09T12:12:27.343Z,70.47
2022-11-09T12:14:02.418Z,69.06
2022-11-09T12:15:39.792Z,70.04
2022-11-09T12:17:09.153Z,69.17
2022-11-09T12:18:43.242Z,70.30
2022-11-09T12:20:18.659Z,69.60
2022-11-09T12:21:45.865Z,68.80
2022-11-09T12:23:25.481Z,68.98
2022-11-09T12:24:53.642Z,68.33
2022-11-09T12:26:26.451Z,68.68
2022-11-09T12:28:01.054Z,69.10
2022-11-09T12:29:27.774Z,69.15
2022-11-09T12:31:01.042Z,68.97
2022-11-09T12:32:31.783Z,69.00
2022-11-09T12:33:59.905Z,68.97
2022-11-09T12:35:27.077Z,69.24
2022-11-09T12:36:54.429Z,69.50
2022-11-09T12:38:19.909Z,69.84
2022-11-09T12:39:45.091Z,69.87
2022-11-09T12:41:11.730Z,69.96
2022-11-09T12:42:38.894Z,69.90
2022-11-09T12:44:05.232Z,69.52
2022-11-09T12:45:31.122Z,69.34
2022-11-09T12:46:59.125Z,69.71
2022-11-09T12:48:24.777Z,69.77
2022-11-09T12:49:48.179Z,68.75
2022-11-09T12:51:11.295Z,69.12
2022-11-09T12:52:33.742Z,68.13
2022-11-09T12:53:56.986Z,67.73
2022-11-09T12:55:21.580Z,67.39
2022-11-09T12:56:47.640Z,67.29
2022-11-09T12:58:22.646Z,65.70
2022-11-09T12:59:50.400Z,67.56
2022-11-09T13:01:14.376Z,67.29
2022-11-09T13:02:43.744Z,67.22
2022-11-09T13:04:07.723Z,67.32
2022-11-09T13:05:32.215Z,67.04
2022-11-09T13:07:19.794Z,64.68
2022-11-09T13:08:42.449Z,66.65
2022-11-09T13:10:05.433Z,66.52
2022-11-09T13:11:36.374Z,66.09
2022-11-09T13:13:07.149Z,66.23
2022-11-09T13:14:37.073Z,66.47
2022-11-09T13:16:12.541Z,66.20
2022-11-09T13:17:58.193Z,64.86
2022-11-09T13:19:52.716Z,65.09
2022-11-09T13:21:40.763Z,64.20
2022-11-09T13:23:05.032Z,66.49
2022-11-09T13:24:55.426Z,66.80
2022-11-09T13:26:25.744Z,66.91
2022-11-09T13:27:49.992Z,66.75
2022-11-09T13:29:24.322Z,66.98
2022-11-09T13:30:48.333Z,66.52
2022-11-09T13:32:33.589Z,66.78
2022-11-09T13:34:37.196Z,66.70
2022-11-09T13:36:21.755Z,67.47
2022-11-09T13:38:08.743Z,67.89
2022-11-09T13:39:34.002Z,67.72
2022-11-09T13:40:57.295Z,67.33
2022-11-09T13:42:29.278Z,67.62
2022-11-09T13:44:09.314Z,66.79
2022-11-09T13:45:35.017Z,67.33
2022-11-09T13:46:58.799Z,67.40
2022-11-09T13:48:43.213Z,66.29
2022-11-09T13:50:12.881Z,67.27
2022-11-09T13:51:46.253Z,66.98
2022-11-09T13:53:29.204Z,66.78
2022-11-09T13:54:54.813Z,67.02
2022-11-09T13:56:27.329Z,67.09
2022-11-09T13:57:50.063Z,67.29
2022-11-09T13:59:16.802Z,67.86
2022-11-09T14:00:39.294Z,67.73
2022-11-09T14:02:04.024Z,67.61
2022-11-09T14:03:28.472Z,67.86
2022-11-09T14:04:51.124Z,67.98
2022-11-09T14:06:14.881Z,68.05
2022-11-09T14:07:37.628Z,68.55
2022-11-09T14:09:00.394Z,68.73
2022-11-09T14:10:29.228Z,68.88
2022-11-09T14:12:01.513Z,69.08
2022-11-09T14:13:43.628Z,69.35
2022-11-09T14:15:15.364Z,69.64
2022-11-09T14:16:44.506Z,69.94
2022-11-09T14:18:19.716Z,69.97
2022-11-09T14:19:50.853Z,70.17
2022-11-09T14:21:36.759Z,70.36
2022-11-09T14:22:58.945Z,70.68
2022-11-09T14:24:22.962Z,70.62
2022-11-09T14:25:45.796Z,70.50
2022-11-09T14:27:15.689Z,70.72
2022-11-09T14:28:38.115Z,71.29
2022-11-09T14:30:02.856Z,71.07
2022-11-09T14:31:26.717Z,71.19
2022-11-09T14:32:50.627Z,71.98
2022-11-09T14:34:16.983Z,72.16
2022-11-09T14:35:40.793Z,72.24
2022-11-09T14:37:05.923Z,72.19
2022-11-09T14:38:30.270Z,72.06
2022-11-09T14:39:54.615Z,72.86
2022-11-09T14:41:23.111Z,72.34
2022-11-09T14:42:51.273Z,72.60
2022-11-09T14:44:26.044Z,73.12
2022-11-09T14:45:50.864Z,73.07
2022-11-09T14:47:17.060Z,72.94
2022-11-09T14:48:43.292Z,73.34
2022-11-09T14:50:12.888Z,73.59
2022-11-09T14:51:38.126Z,73.90
2022-11-09T14:53:00.773Z,73.99
2022-11-09T14:54:26.896Z,74.10
2022-11-09T14:55:50.674Z,74.47
2022-11-09T14:57:16.185Z,74.95
2022-11-09T14:58:41.236Z,75.73
2022-11-09T15:00:03.933Z,75.92
2022-11-09T15:01:27.406Z,76.63
2022-11-09T15:02:49.675Z,76.82
2022-11-09T15:04:14.924Z,76.49
2022-11-09T15:05:41.304Z,76.81
2022-11-09T15:07:05.356Z,77.28
2022-11-09T15:08:27.756Z,77.36
2022-11-09T15:09:51.553Z,77.32
2022-11-09T15:11:14.142Z,77.68
2022-11-09T15:12:42.519Z,77.65
2022-11-09T15:14:15.368Z,77.88
2022-11-09T15:15:38.975Z,78.05
2022-11-09T15:17:06.891Z,77.68
2022-11-09T15:18:33.905Z,78.15
2022-11-09T15:19:58.215Z,77.99
2022-11-09T15:21:35.035Z,77.68
2022-11-09T15:22:58.582Z,78.31
2022-11-09T15:24:21.645Z,78.43
2022-11-09T15:25:56.244Z,78.85
2022-11-09T15:27:32.216Z,79.42